Geneseo, IL

2:39 AM CST on November 28, 2014 (GMT -0600)
PRY FARM | Change Station
CLOSE
Current Station
Personal Weather Station
Location: GENESEO, IL
Elevation: 656 ft
Nearby Weather Stations

Elev 656 ft 41.46 °N, 90.22 °W | Updated 2 seconds ago

Overcast
Overcast
15.0 °F
Feels Like 8 °F
N
4.0
Wind Variable Wind from SE
Gusts 5.8 mph

Today
High -- | Low -- °F
--% Chance of Precip.
Yesterday
High -- | Low -- °F
Precip. -- in
7:04 AM 4:33 PM
Waxing Crescent, 38% visible
Pressure 30.37 in
Visibility 8.0 miles
Clouds Overcast 5000 ft
Windchill 8 °F
Dew Point 12 °F
Humidity 87%
Rainfall 0.00 in
Snow Depth Not available.
UV 0 out of 12
Pollen .10 out of 12
Air Quality Not available.
Flu Activity Not available.
METAR KMLI 280752Z AUTO 12006KT 8SM -SN OVC050 M09/M13 A3034 RMK AO2 SNB01 PRESFR SLP283 P0000 T10941133 $

More Conditions Fewer Conditions

Pressure 30.37 in
Visibility 8.0 miles
Clouds Overcast 5000 ft
Windchill 8 °F
Dew Point 12 °F
Humidity 87%
Rainfall 0.00 in
Snow Depth Not available.
UV 0 out of 12
Pollen .10 out of 12
Air Quality Not available.
Flu Activity Not available.
METAR KMLI 280752Z AUTO 12006KT 8SM -SN OVC050 M09/M13 A3034 RMK AO2 SNB01 PRESFR SLP283 P0000 T10941133 $

More Conditions Fewer Conditions

10-Day Weather Forecast

Almanac

Astronomy

Nov. 28, 2014 Rise Set
Actual Time
Civil Twilight
Nautical Twilight
Astronomical Twilight
Moon
Length of Visible Light
Length of Day
Tomorrow will be .
, % of the Moon is Illuminated

Today's Extremes

State Highs State Lows

Community

WunderPhotos

Upload Photos

1,774,191 photos uploaded!

WunderBlogs® & News

Nearby

Air Quality

  Air Quality AQ Index Pollutant
Not available.

Snow Depth

Station Depth Elevation

Earthquake Activity

City Distance Mag. Time & Date
Minimum magnitude displayed is 2.5.

Coastal Water Temperatures

Place Temperature

Nearby Weather Stations